createdAt,value
2016-08-08T00:01:32.867Z,1013.59
2016-08-08T00:04:46.358Z,1013.45
2016-08-08T00:08:03.607Z,1013.49
2016-08-08T00:11:08.464Z,1013.51
2016-08-08T00:14:21.775Z,1013.45
2016-08-08T00:17:35.329Z,1013.29
2016-08-08T00:20:48.815Z,1013.37
2016-08-08T00:24:06.345Z,1013.45
2016-08-08T00:27:11.285Z,1013.45
2016-08-08T00:30:24.725Z,1013.43
2016-08-08T00:33:37.891Z,1013.39
2016-08-08T00:36:50.935Z,1013.37
2016-08-08T00:40:08.682Z,1013.43
2016-08-08T00:43:13.597Z,1013.31
2016-08-08T00:46:26.978Z,1013.31
2016-08-08T00:49:39.581Z,1013.15
2016-08-08T00:52:52.818Z,1013.23
2016-08-08T00:56:06.187Z,1013.15
2016-08-08T00:59:19.403Z,1013.13
2016-08-08T01:02:32.423Z,1013.17
2016-08-08T01:05:45.744Z,1013.06
2016-08-08T01:09:02.970Z,1013.07
2016-08-08T01:12:07.895Z,1012.98
2016-08-08T01:15:20.970Z,1012.96
2016-08-08T01:18:33.894Z,1013.02
2016-08-08T01:21:46.961Z,1013
2016-08-08T01:25:04.086Z,1012.84
2016-08-08T01:28:08.950Z,1012.9
2016-08-08T01:31:21.544Z,1012.94
2016-08-08T01:34:34.711Z,1012.82
2016-08-08T01:37:47.851Z,1012.7
2016-08-08T01:41:05.340Z,1012.78
2016-08-08T01:44:10.309Z,1012.62
2016-08-08T01:47:23.433Z,1012.74
2016-08-08T01:50:36.268Z,1012.58
2016-08-08T01:53:49.356Z,1012.46
2016-08-08T01:57:06.492Z,1012.46
2016-08-08T02:00:11.490Z,1012.42
2016-08-08T02:03:24.666Z,1012.44
2016-08-08T02:06:38.147Z,1012.4
2016-08-08T02:09:51.518Z,1012.34
2016-08-08T02:13:08.796Z,1012.3
2016-08-08T02:16:13.488Z,1012.22
2016-08-08T02:19:26.877Z,1012.3
2016-08-08T02:22:39.763Z,1012.18
2016-08-08T02:25:53.163Z,1012.16
2016-08-08T02:29:06.211Z,1012.16
2016-08-08T02:32:19.184Z,1012.22
2016-08-08T02:35:32.250Z,1012.08
2016-08-08T02:38:45.664Z,1012.1
2016-08-08T02:45:07.820Z,1012
2016-08-08T02:48:20.930Z,1012.06
2016-08-08T02:51:33.783Z,1011.92
2016-08-08T02:54:46.733Z,1011.96
2016-08-08T02:58:03.903Z,1011.94
2016-08-08T03:01:08.571Z,1011.88
2016-08-08T03:04:21.569Z,1011.92
2016-08-08T03:07:35.004Z,1011.84
2016-08-08T03:10:48.351Z,1011.84
2016-08-08T03:14:05.722Z,1011.8
2016-08-08T17:25:48.087Z,1010.83
2016-08-08T17:29:03.184Z,1010.91
2016-08-08T17:32:08.029Z,1010.89
2016-08-08T17:35:19.322Z,1010.87
2016-08-08T17:38:32.775Z,1010.99
2016-08-08T17:41:46.402Z,1011.01
2016-08-08T17:45:03.944Z,1010.93
2016-08-08T17:48:08.851Z,1010.91
2016-08-08T17:51:22.180Z,1010.93
2016-08-08T17:54:35.457Z,1010.87
2016-08-08T17:57:49.013Z,1010.89
2016-08-08T18:01:06.372Z,1010.87
2016-08-08T18:04:11.154Z,1010.75
2016-08-08T18:07:24.846Z,1010.83
2016-08-08T18:10:37.878Z,1010.87
2016-08-08T18:13:51.343Z,1010.91
2016-08-08T18:17:08.772Z,1010.89
2016-08-08T18:20:13.523Z,1010.85
2016-08-08T18:23:27.004Z,1010.89
2016-08-08T18:26:40.438Z,1010.85
2016-08-08T18:29:54.010Z,1010.85
2016-08-08T18:33:07.430Z,1010.75
2016-08-08T18:36:20.847Z,1010.81
2016-08-08T18:39:34.516Z,1010.85
2016-08-08T18:42:47.769Z,1010.85
2016-08-08T18:46:05.188Z,1010.91
2016-08-08T18:49:09.930Z,1010.83
2016-08-08T18:52:23.334Z,1010.93
2016-08-08T18:55:36.759Z,1010.93
2016-08-08T18:58:50.261Z,1011.01
2016-08-08T19:02:07.479Z,1011.03
2016-08-08T19:05:12.038Z,1011.17
2016-08-08T19:08:25.473Z,1011.13
2016-08-08T19:11:39.045Z,1011.03
2016-08-08T19:14:52.255Z,1010.99
2016-08-08T19:18:09.579Z,1011.09
2016-08-08T19:21:14.119Z,1011.23
2016-08-08T19:24:27.398Z,1011.23
2016-08-08T19:27:40.615Z,1011.29
2016-08-08T19:30:54.018Z,1011.23
2016-08-08T19:34:07.542Z,1011.23
2016-08-08T19:37:21.055Z,1011.25
2016-08-08T19:40:34.617Z,1011.27
2016-08-08T19:43:47.965Z,1011.27
2016-08-08T19:47:05.089Z,1011.33
2016-08-08T19:50:09.715Z,1011.33
2016-08-08T19:53:23.156Z,1011.31
2016-08-08T19:56:36.104Z,1011.31
2016-08-08T19:59:49.706Z,1011.35
2016-08-08T20:03:06.960Z,1011.29
2016-08-08T20:06:10.493Z,1011.37
2016-08-08T20:09:24.930Z,1011.29
2016-08-08T20:12:37.734Z,1011.33
2016-08-08T20:19:08.427Z,1011.51
2016-08-08T20:22:13.069Z,1011.43
2016-08-08T20:25:26.472Z,1011.55
2016-08-08T20:28:39.757Z,1011.51
2016-08-08T20:31:52.685Z,1011.61
2016-08-08T20:35:09.695Z,1011.51
2016-08-08T20:38:14.189Z,1011.61
2016-08-08T20:41:26.530Z,1011.59
2016-08-08T20:44:39.305Z,1011.55
2016-08-08T20:47:52.336Z,1011.64
2016-08-08T20:51:09.529Z,1011.53
2016-08-08T20:54:13.830Z,1011.64
2016-08-08T20:57:26.854Z,1011.61
2016-08-08T21:00:40.297Z,1011.59
2016-08-08T21:03:52.505Z,1011.61
2016-08-08T21:07:09.238Z,1011.59
2016-08-08T21:10:13.477Z,1011.66
2016-08-08T21:13:26.295Z,1011.66
2016-08-08T21:16:39.196Z,1011.66
2016-08-08T21:19:49.423Z,1011.57
2016-08-08T21:23:06.799Z,1011.66
2016-08-08T21:26:11.216Z,1011.72
2016-08-08T21:29:23.817Z,1011.76
2016-08-08T21:32:36.695Z,1011.72
2016-08-08T21:35:49.761Z,1011.76
2016-08-08T21:39:08.152Z,1011.84
2016-08-08T21:42:11.770Z,1011.72
2016-08-08T21:45:24.789Z,1011.76
2016-08-08T21:48:35.745Z,1011.72
2016-08-08T21:51:49.143Z,1011.84
2016-08-08T21:55:06.455Z,1011.84
2016-08-08T21:58:10.956Z,1011.72
2016-08-08T22:04:37.414Z,1011.96
2016-08-08T22:07:50.570Z,1011.96
2016-08-08T22:11:07.707Z,1011.82
2016-08-08T22:14:12.096Z,1011.84
2016-08-08T22:17:25.429Z,1011.86
2016-08-08T22:20:38.862Z,1011.9
2016-08-08T22:23:50.433Z,1011.86
2016-08-08T22:27:07.509Z,1011.92
2016-08-08T22:30:12.074Z,1011.96
2016-08-08T22:33:25.364Z,1011.86
2016-08-08T22:36:38.737Z,1011.88
2016-08-08T22:39:52.507Z,1011.76
2016-08-08T22:43:07.465Z,1011.9
2016-08-08T22:46:12.020Z,1011.96
2016-08-08T22:49:25.172Z,1011.9
2016-08-08T22:52:38.355Z,1012.02
2016-08-08T22:55:51.633Z,1011.96
2016-08-08T22:59:09.016Z,1011.98
2016-08-08T23:02:13.506Z,1011.98
2016-08-08T23:05:26.703Z,1012
2016-08-08T23:08:39.321Z,1011.98
2016-08-08T23:11:52.246Z,1012.02
2016-08-08T23:15:09.374Z,1012.04
2016-08-08T23:18:13.823Z,1012.04
2016-08-08T23:21:26.871Z,1012.14
2016-08-08T23:24:38.022Z,1012.12
2016-08-08T23:27:51.329Z,1012.1
2016-08-08T23:31:08.435Z,1012.06
2016-08-08T23:34:12.736Z,1012.08
2016-08-08T23:37:25.736Z,1012.1
2016-08-08T23:40:38.829Z,1012.12
2016-08-08T23:43:51.823Z,1012.1
2016-08-08T23:47:08.616Z,1012.1
2016-08-08T23:50:12.978Z,1012.16
2016-08-08T23:53:25.774Z,1012.1
2016-08-08T23:56:38.775Z,1012.2
2016-08-08T23:59:51.889Z,1012.26
